Terminal Aerodrome Forecast
Issued by NWS San Angelo, TX

Home | Current Version | Previous Version | Text Only | Print | Product List | Glossary On
Versions: 1 2 3 4 5 6 7 8 9 10 11 12 13 14 15 16 17 18 19 20 21 22 23 24 25 26 27
787
FTUS44 KSJT 300520
TAFABI
TAF
KABI 300520Z 3006/0106 30016G23KT P6SM VCSH BKN012
      TEMPO 3006/3008 SCT012 BKN040
     FM300800 31014G22KT P6SM SCT040 BKN120
     FM301500 31021G30KT P6SM SKC
     FM010200 35007KT P6SM SKC=

USA.gov is the U.S. government's official web portal to all federal, state and local government web resources and services.